sensor_id;sensor_type;location;lat;lon;timestamp;P1;durP1;ratioP1;P2;durP2;ratioP2
23376;SDS011;14353;46.070;13.222;2023-03-20T00:02:02;3.00;;;2.70;;
23376;SDS011;14353;46.070;13.222;2023-03-20T00:04:29;2.70;;;2.50;;
23376;SDS011;14353;46.070;13.222;2023-03-20T00:06:55;2.90;;;2.60;;
23376;SDS011;14353;46.070;13.222;2023-03-20T00:09:21;2.60;;;2.40;;
23376;SDS011;14353;46.070;13.222;2023-03-20T00:11:50;3.25;;;2.60;;
23376;SDS011;14353;46.070;13.222;2023-03-20T00:14:18;3.75;;;2.80;;
23376;SDS011;14353;46.070;13.222;2023-03-20T00:16:46;3.20;;;2.65;;
23376;SDS011;14353;46.070;13.222;2023-03-20T00:19:17;3.83;;;2.80;;
23376;SDS011;14353;46.070;13.222;2023-03-20T00:21:43;3.22;;;2.85;;
23376;SDS011;14353;46.070;13.222;2023-03-20T00:24:11;3.08;;;2.78;;
23376;SDS011;14353;46.070;13.222;2023-03-20T00:26:38;3.30;;;2.83;;
23376;SDS011;14353;46.070;13.222;2023-03-20T00:29:04;3.13;;;2.80;;
23376;SDS011;14353;46.070;13.222;2023-03-20T00:31:32;2.67;;;2.47;;
23376;SDS011;14353;46.070;13.222;2023-03-20T00:34:10;3.05;;;2.72;;
23376;SDS011;14353;46.070;13.222;2023-03-20T00:36:38;3.42;;;3.05;;
23376;SDS011;14353;46.070;13.222;2023-03-20T00:39:04;2.70;;;2.50;;
23376;SDS011;14353;46.070;13.222;2023-03-20T00:41:31;3.05;;;2.75;;
23376;SDS011;14353;46.070;13.222;2023-03-20T00:44:18;3.03;;;2.72;;
23376;SDS011;14353;46.070;13.222;2023-03-20T00:46:53;3.47;;;3.05;;
23376;SDS011;14353;46.070;13.222;2023-03-20T00:49:27;2.97;;;2.67;;
23376;SDS011;14353;46.070;13.222;2023-03-20T00:51:56;3.38;;;2.90;;
23376;SDS011;14353;46.070;13.222;2023-03-20T00:54:22;2.95;;;2.63;;
23376;SDS011;14353;46.070;13.222;2023-03-20T00:59:50;3.17;;;2.88;;
23376;SDS011;14353;46.070;13.222;2023-03-20T01:02:35;4.22;;;3.08;;
23376;SDS011;14353;46.070;13.222;2023-03-20T01:05:01;3.95;;;3.30;;
23376;SDS011;14353;46.070;13.222;2023-03-20T01:07:29;3.30;;;3.00;;
23376;SDS011;14353;46.070;13.222;2023-03-20T01:09:55;3.30;;;2.90;;
23376;SDS011;14353;46.070;13.222;2023-03-20T01:12:20;3.33;;;3.03;;
23376;SDS011;14353;46.070;13.222;2023-03-20T01:14:54;3.85;;;3.20;;
23376;SDS011;14353;46.070;13.222;2023-03-20T01:17:22;3.10;;;2.80;;
23376;SDS011;14353;46.070;13.222;2023-03-20T01:19:48;3.20;;;2.90;;
23376;SDS011;14353;46.070;13.222;2023-03-20T01:22:14;3.38;;;3.08;;
23376;SDS011;14353;46.070;13.222;2023-03-20T01:24:43;3.42;;;2.97;;
23376;SDS011;14353;46.070;13.222;2023-03-20T01:27:17;3.33;;;3.03;;
23376;SDS011;14353;46.070;13.222;2023-03-20T01:29:43;3.47;;;3.17;;
23376;SDS011;14353;46.070;13.222;2023-03-20T01:32:11;3.58;;;3.05;;
23376;SDS011;14353;46.070;13.222;2023-03-20T01:34:39;3.80;;;3.42;;
23376;SDS011;14353;46.070;13.222;2023-03-20T01:37:05;3.30;;;3.00;;
23376;SDS011;14353;46.070;13.222;2023-03-20T01:39:36;4.22;;;3.25;;
23376;SDS011;14353;46.070;13.222;2023-03-20T01:42:02;3.92;;;3.53;;
23376;SDS011;14353;46.070;13.222;2023-03-20T01:44:31;3.90;;;3.50;;
23376;SDS011;14353;46.070;13.222;2023-03-20T01:46:58;3.70;;;3.40;;
23376;SDS011;14353;46.070;13.222;2023-03-20T01:51:52;3.45;;;3.15;;
23376;SDS011;14353;46.070;13.222;2023-03-20T01:56:47;3.50;;;3.20;;
23376;SDS011;14353;46.070;13.222;2023-03-20T02:02:18;4.15;;;3.30;;
23376;SDS011;14353;46.070;13.222;2023-03-20T02:04:47;4.03;;;3.33;;
23376;SDS011;14353;46.070;13.222;2023-03-20T02:07:17;3.53;;;3.22;;
23376;SDS011;14353;46.070;13.222;2023-03-20T02:09:47;3.50;;;3.20;;
23376;SDS011;14353;46.070;13.222;2023-03-20T02:12:14;4.07;;;3.55;;
23376;SDS011;14353;46.070;13.222;2023-03-20T02:14:40;3.88;;;3.20;;
23376;SDS011;14353;46.070;13.222;2023-03-20T02:17:08;3.85;;;3.35;;
23376;SDS011;14353;46.070;13.222;2023-03-20T02:22:39;3.63;;;3.20;;
23376;SDS011;14353;46.070;13.222;2023-03-20T02:39:23;3.92;;;3.47;;
23376;SDS011;14353;46.070;13.222;2023-03-20T02:44:51;3.85;;;3.40;;
23376;SDS011;14353;46.070;13.222;2023-03-20T02:55:42;4.10;;;3.70;;
23376;SDS011;14353;46.070;13.222;2023-03-20T02:58:30;4.25;;;3.60;;
23376;SDS011;14353;46.070;13.222;2023-03-20T03:03:48;4.28;;;3.38;;
23376;SDS011;14353;46.070;13.222;2023-03-20T03:06:34;4.00;;;3.30;;
23376;SDS011;14353;46.070;13.222;2023-03-20T03:11:52;3.70;;;3.40;;
23376;SDS011;14353;46.070;13.222;2023-03-20T03:14:32;3.92;;;3.53;;
23376;SDS011;14353;46.070;13.222;2023-03-20T03:17:03;4.35;;;3.95;;
23376;SDS011;14353;46.070;13.222;2023-03-20T03:19:30;4.07;;;3.67;;
23376;SDS011;14353;46.070;13.222;2023-03-20T03:21:57;4.00;;;3.40;;
23376;SDS011;14353;46.070;13.222;2023-03-20T03:24:34;3.67;;;3.35;;
23376;SDS011;14353;46.070;13.222;2023-03-20T03:27:22;4.00;;;3.63;;
23376;SDS011;14353;46.070;13.222;2023-03-20T03:30:24;3.95;;;3.55;;
23376;SDS011;14353;46.070;13.222;2023-03-20T03:32:48;4.47;;;3.70;;
23376;SDS011;14353;46.070;13.222;2023-03-20T03:35:21;4.18;;;3.72;;
23376;SDS011;14353;46.070;13.222;2023-03-20T03:37:52;3.67;;;3.38;;
23376;SDS011;14353;46.070;13.222;2023-03-20T03:44:22;5.65;;;3.90;;
23376;SDS011;14353;46.070;13.222;2023-03-20T03:49:34;3.90;;;3.50;;
23376;SDS011;14353;46.070;13.222;2023-03-20T03:52:02;4.07;;;3.67;;
23376;SDS011;14353;46.070;13.222;2023-03-20T03:54:37;4.03;;;3.60;;
23376;SDS011;14353;46.070;13.222;2023-03-20T03:57:10;4.00;;;3.60;;
23376;SDS011;14353;46.070;13.222;2023-03-20T03:59:39;4.25;;;3.83;;
23376;SDS011;14353;46.070;13.222;2023-03-20T04:02:10;4.10;;;3.70;;
23376;SDS011;14353;46.070;13.222;2023-03-20T04:04:38;4.88;;;4.03;;
23376;SDS011;14353;46.070;13.222;2023-03-20T04:07:07;4.68;;;4.10;;
23376;SDS011;14353;46.070;13.222;2023-03-20T04:09:33;4.88;;;4.13;;
23376;SDS011;14353;46.070;13.222;2023-03-20T04:11:58;3.92;;;3.53;;
23376;SDS011;14353;46.070;13.222;2023-03-20T04:14:24;4.10;;;3.70;;
23376;SDS011;14353;46.070;13.222;2023-03-20T04:16:50;4.13;;;3.72;;
23376;SDS011;14353;46.070;13.222;2023-03-20T04:19:16;5.05;;;3.80;;
23376;SDS011;14353;46.070;13.222;2023-03-20T04:21:41;3.88;;;3.47;;
23376;SDS011;14353;46.070;13.222;2023-03-20T04:24:07;4.20;;;3.80;;
23376;SDS011;14353;46.070;13.222;2023-03-20T04:26:33;3.75;;;3.35;;
23376;SDS011;14353;46.070;13.222;2023-03-20T04:28:58;4.07;;;3.67;;
23376;SDS011;14353;46.070;13.222;2023-03-20T04:31:25;3.90;;;3.58;;
23376;SDS011;14353;46.070;13.222;2023-03-20T04:33:52;4.25;;;3.78;;
23376;SDS011;14353;46.070;13.222;2023-03-20T04:36:18;4.63;;;3.80;;
23376;SDS011;14353;46.070;13.222;2023-03-20T04:38:43;4.18;;;3.70;;
23376;SDS011;14353;46.070;13.222;2023-03-20T04:41:09;3.90;;;3.50;;
23376;SDS011;14353;46.070;13.222;2023-03-20T04:43:35;4.10;;;3.67;;
23376;SDS011;14353;46.070;13.222;2023-03-20T04:46:00;4.07;;;3.67;;
23376;SDS011;14353;46.070;13.222;2023-03-20T04:48:26;3.90;;;3.45;;
23376;SDS011;14353;46.070;13.222;2023-03-20T04:50:52;4.32;;;3.83;;
23376;SDS011;14353;46.070;13.222;2023-03-20T04:53:18;4.10;;;3.70;;
23376;SDS011;14353;46.070;13.222;2023-03-20T04:55:44;3.97;;;3.58;;
23376;SDS011;14353;46.070;13.222;2023-03-20T04:58:10;4.10;;;3.70;;
23376;SDS011;14353;46.070;13.222;2023-03-20T05:00:36;4.40;;;3.85;;
23376;SDS011;14353;46.070;13.222;2023-03-20T05:03:02;4.15;;;3.70;;
23376;SDS011;14353;46.070;13.222;2023-03-20T05:05:28;3.97;;;3.55;;
23376;SDS011;14353;46.070;13.222;2023-03-20T05:07:53;4.13;;;3.65;;
23376;SDS011;14353;46.070;13.222;2023-03-20T05:10:20;4.43;;;3.78;;
23376;SDS011;14353;46.070;13.222;2023-03-20T05:12:46;4.45;;;4.05;;
23376;SDS011;14353;46.070;13.222;2023-03-20T05:15:12;4.00;;;3.60;;
23376;SDS011;14353;46.070;13.222;2023-03-20T05:17:38;5.05;;;4.10;;
23376;SDS011;14353;46.070;13.222;2023-03-20T05:20:04;4.60;;;3.70;;
23376;SDS011;14353;46.070;13.222;2023-03-20T05:22:31;3.58;;;3.28;;
23376;SDS011;14353;46.070;13.222;2023-03-20T05:24:56;4.32;;;3.83;;
23376;SDS011;14353;46.070;13.222;2023-03-20T05:27:22;4.20;;;3.75;;
23376;SDS011;14353;46.070;13.222;2023-03-20T05:29:48;4.15;;;3.50;;
23376;SDS011;14353;46.070;13.222;2023-03-20T05:32:13;3.50;;;3.20;;
23376;SDS011;14353;46.070;13.222;2023-03-20T05:34:39;3.72;;;3.35;;
23376;SDS011;14353;46.070;13.222;2023-03-20T05:37:05;4.22;;;3.83;;
23376;SDS011;14353;46.070;13.222;2023-03-20T05:39:31;4.78;;;4.22;;
23376;SDS011;14353;46.070;13.222;2023-03-20T05:41:56;4.15;;;3.75;;
23376;SDS011;14353;46.070;13.222;2023-03-20T05:44:22;3.97;;;3.58;;
23376;SDS011;14353;46.070;13.222;2023-03-20T05:46:48;3.95;;;3.55;;
23376;SDS011;14353;46.070;13.222;2023-03-20T05:49:13;4.07;;;3.63;;
23376;SDS011;14353;46.070;13.222;2023-03-20T05:51:39;3.92;;;3.53;;
23376;SDS011;14353;46.070;13.222;2023-03-20T05:54:05;4.22;;;3.53;;
23376;SDS011;14353;46.070;13.222;2023-03-20T05:56:30;4.65;;;3.83;;
23376;SDS011;14353;46.070;13.222;2023-03-20T05:58:56;3.63;;;3.33;;
23376;SDS011;14353;46.070;13.222;2023-03-20T06:01:22;4.43;;;3.70;;
23376;SDS011;14353;46.070;13.222;2023-03-20T06:03:48;3.83;;;3.42;;
23376;SDS011;14353;46.070;13.222;2023-03-20T06:06:14;4.00;;;3.60;;
23376;SDS011;14353;46.070;13.222;2023-03-20T06:08:41;5.03;;;4.13;;
23376;SDS011;14353;46.070;13.222;2023-03-20T06:11:07;4.20;;;3.60;;
23376;SDS011;14353;46.070;13.222;2023-03-20T06:13:33;3.60;;;3.30;;
23376;SDS011;14353;46.070;13.222;2023-03-20T06:15:59;4.25;;;3.75;;
23376;SDS011;14353;46.070;13.222;2023-03-20T06:18:25;4.00;;;3.60;;
23376;SDS011;14353;46.070;13.222;2023-03-20T06:20:55;3.50;;;3.20;;
23376;SDS011;14353;46.070;13.222;2023-03-20T06:23:21;3.97;;;3.58;;
23376;SDS011;14353;46.070;13.222;2023-03-20T06:25:47;95.57;;;6.93;;
23376;SDS011;14353;46.070;13.222;2023-03-20T06:28:13;28.63;;;4.70;;
23376;SDS011;14353;46.070;13.222;2023-03-20T06:30:39;22.67;;;5.00;;
23376;SDS011;14353;46.070;13.222;2023-03-20T06:33:05;31.02;;;5.90;;
23376;SDS011;14353;46.070;13.222;2023-03-20T06:35:31;36.90;;;5.70;;
23376;SDS011;14353;46.070;13.222;2023-03-20T06:37:57;30.77;;;5.20;;
23376;SDS011;14353;46.070;13.222;2023-03-20T06:40:23;26.58;;;5.32;;
23376;SDS011;14353;46.070;13.222;2023-03-20T06:42:51;27.80;;;5.43;;
23376;SDS011;14353;46.070;13.222;2023-03-20T06:45:17;20.80;;;5.60;;
23376;SDS011;14353;46.070;13.222;2023-03-20T06:47:44;15.77;;;5.07;;
23376;SDS011;14353;46.070;13.222;2023-03-20T06:50:11;15.93;;;5.50;;
23376;SDS011;14353;46.070;13.222;2023-03-20T06:52:37;12.55;;;5.10;;
23376;SDS011;14353;46.070;13.222;2023-03-20T06:55:04;14.73;;;5.60;;
23376;SDS011;14353;46.070;13.222;2023-03-20T06:57:31;10.90;;;5.30;;
23376;SDS011;14353;46.070;13.222;2023-03-20T06:59:57;14.65;;;4.90;;
23376;SDS011;14353;46.070;13.222;2023-03-20T07:02:24;12.43;;;5.38;;
23376;SDS011;14353;46.070;13.222;2023-03-20T07:04:49;9.07;;;5.32;;
23376;SDS011;14353;46.070;13.222;2023-03-20T07:07:15;12.43;;;5.60;;
23376;SDS011;14353;46.070;13.222;2023-03-20T07:09:42;11.90;;;5.50;;
23376;SDS011;14353;46.070;13.222;2023-03-20T07:12:10;11.50;;;5.82;;
23376;SDS011;14353;46.070;13.222;2023-03-20T07:14:38;10.13;;;5.95;;
23376;SDS011;14353;46.070;13.222;2023-03-20T07:17:05;11.73;;;5.70;;
23376;SDS011;14353;46.070;13.222;2023-03-20T07:19:33;11.68;;;6.93;;
23376;SDS011;14353;46.070;13.222;2023-03-20T07:22:01;11.40;;;7.88;;
23376;SDS011;14353;46.070;13.222;2023-03-20T07:24:30;11.85;;;7.60;;
23376;SDS011;14353;46.070;13.222;2023-03-20T07:26:56;10.55;;;7.93;;
23376;SDS011;14353;46.070;13.222;2023-03-20T07:29:22;15.82;;;8.70;;
23376;SDS011;14353;46.070;13.222;2023-03-20T07:31:48;12.90;;;8.60;;
23376;SDS011;14353;46.070;13.222;2023-03-20T07:34:13;15.18;;;8.43;;
23376;SDS011;14353;46.070;13.222;2023-03-20T07:36:39;12.93;;;7.00;;
23376;SDS011;14353;46.070;13.222;2023-03-20T07:39:06;10.52;;;7.72;;
23376;SDS011;14353;46.070;13.222;2023-03-20T07:41:32;11.88;;;6.70;;
23376;SDS011;14353;46.070;13.222;2023-03-20T07:43:58;15.30;;;6.93;;
23376;SDS011;14353;46.070;13.222;2023-03-20T07:46:24;16.70;;;6.68;;
23376;SDS011;14353;46.070;13.222;2023-03-20T07:48:50;15.85;;;6.85;;
23376;SDS011;14353;46.070;13.222;2023-03-20T07:51:16;20.88;;;7.03;;
23376;SDS011;14353;46.070;13.222;2023-03-20T07:53:42;17.35;;;6.82;;
23376;SDS011;14353;46.070;13.222;2023-03-20T07:56:08;11.82;;;6.60;;
23376;SDS011;14353;46.070;13.222;2023-03-20T07:58:34;13.43;;;6.65;;
23376;SDS011;14353;46.070;13.222;2023-03-20T08:01:00;13.40;;;6.65;;
23376;SDS011;14353;46.070;13.222;2023-03-20T08:03:27;10.98;;;6.60;;
23376;SDS011;14353;46.070;13.222;2023-03-20T08:05:52;15.25;;;6.45;;
23376;SDS011;14353;46.070;13.222;2023-03-20T08:08:18;15.52;;;6.25;;
23376;SDS011;14353;46.070;13.222;2023-03-20T08:10:45;14.15;;;6.90;;
23376;SDS011;14353;46.070;13.222;2023-03-20T08:13:11;11.15;;;6.53;;
23376;SDS011;14353;46.070;13.222;2023-03-20T08:15:37;11.88;;;6.10;;
23376;SDS011;14353;46.070;13.222;2023-03-20T08:18:03;14.73;;;6.47;;
23376;SDS011;14353;46.070;13.222;2023-03-20T08:20:28;16.88;;;6.35;;
23376;SDS011;14353;46.070;13.222;2023-03-20T08:22:55;13.68;;;6.30;;
23376;SDS011;14353;46.070;13.222;2023-03-20T08:25:21;13.38;;;6.82;;
23376;SDS011;14353;46.070;13.222;2023-03-20T08:27:47;9.63;;;6.45;;
23376;SDS011;14353;46.070;13.222;2023-03-20T08:30:13;15.05;;;6.85;;
23376;SDS011;14353;46.070;13.222;2023-03-20T08:32:40;13.85;;;6.30;;
23376;SDS011;14353;46.070;13.222;2023-03-20T08:35:05;11.80;;;6.57;;
23376;SDS011;14353;46.070;13.222;2023-03-20T08:37:33;12.35;;;6.28;;
23376;SDS011;14353;46.070;13.222;2023-03-20T08:39:59;14.50;;;6.18;;
23376;SDS011;14353;46.070;13.222;2023-03-20T08:42:25;12.63;;;6.90;;
23376;SDS011;14353;46.070;13.222;2023-03-20T08:44:51;16.95;;;6.50;;
23376;SDS011;14353;46.070;13.222;2023-03-20T08:47:16;13.82;;;7.25;;
23376;SDS011;14353;46.070;13.222;2023-03-20T08:49:42;23.42;;;6.78;;
23376;SDS011;14353;46.070;13.222;2023-03-20T08:52:08;12.65;;;6.28;;
23376;SDS011;14353;46.070;13.222;2023-03-20T08:54:34;15.60;;;6.35;;
23376;SDS011;14353;46.070;13.222;2023-03-20T08:57:00;12.05;;;6.40;;
23376;SDS011;14353;46.070;13.222;2023-03-20T08:59:25;10.73;;;6.75;;
23376;SDS011;14353;46.070;13.222;2023-03-20T09:01:51;14.02;;;6.72;;
23376;SDS011;14353;46.070;13.222;2023-03-20T09:04:17;11.65;;;6.00;;
23376;SDS011;14353;46.070;13.222;2023-03-20T09:06:43;9.52;;;5.95;;
23376;SDS011;14353;46.070;13.222;2023-03-20T09:09:09;12.88;;;6.13;;
23376;SDS011;14353;46.070;13.222;2023-03-20T09:11:35;18.08;;;6.88;;
23376;SDS011;14353;46.070;13.222;2023-03-20T09:14:04;15.40;;;6.55;;
23376;SDS011;14353;46.070;13.222;2023-03-20T09:16:29;17.35;;;6.78;;
23376;SDS011;14353;46.070;13.222;2023-03-20T09:18:55;13.05;;;6.18;;
23376;SDS011;14353;46.070;13.222;2023-03-20T09:21:21;14.77;;;6.13;;
23376;SDS011;14353;46.070;13.222;2023-03-20T09:23:47;19.92;;;5.93;;
23376;SDS011;14353;46.070;13.222;2023-03-20T09:26:12;16.25;;;6.43;;
23376;SDS011;14353;46.070;13.222;2023-03-20T09:28:38;21.58;;;6.70;;
23376;SDS011;14353;46.070;13.222;2023-03-20T09:31:04;20.25;;;6.32;;
23376;SDS011;14353;46.070;13.222;2023-03-20T09:33:30;18.02;;;6.30;;
23376;SDS011;14353;46.070;13.222;2023-03-20T09:35:56;17.77;;;6.47;;
23376;SDS011;14353;46.070;13.222;2023-03-20T09:38:21;18.55;;;6.45;;
23376;SDS011;14353;46.070;13.222;2023-03-20T09:41:01;14.55;;;6.07;;
23376;SDS011;14353;46.070;13.222;2023-03-20T09:54:43;16.67;;;6.30;;
23376;SDS011;14353;46.070;13.222;2023-03-20T09:57:16;22.25;;;6.30;;
23376;SDS011;14353;46.070;13.222;2023-03-20T09:59:47;26.90;;;6.40;;
23376;SDS011;14353;46.070;13.222;2023-03-20T10:02:16;21.73;;;6.30;;
23376;SDS011;14353;46.070;13.222;2023-03-20T10:04:49;26.55;;;6.35;;
23376;SDS011;14353;46.070;13.222;2023-03-20T10:07:18;22.05;;;6.20;;
23376;SDS011;14353;46.070;13.222;2023-03-20T10:09:44;37.05;;;7.35;;
23376;SDS011;14353;46.070;13.222;2023-03-20T10:23:22;26.63;;;7.38;;
23376;SDS011;14353;46.070;13.222;2023-03-20T10:25:53;20.30;;;7.18;;
23376;SDS011;14353;46.070;13.222;2023-03-20T10:28:35;25.13;;;7.00;;
23376;SDS011;14353;46.070;13.222;2023-03-20T10:41:51;32.03;;;7.32;;
23376;SDS011;14353;46.070;13.222;2023-03-20T10:44:28;29.30;;;7.07;;
23376;SDS011;14353;46.070;13.222;2023-03-20T10:47:04;21.25;;;6.90;;
23376;SDS011;14353;46.070;13.222;2023-03-20T10:49:45;23.70;;;7.35;;
23376;SDS011;14353;46.070;13.222;2023-03-20T10:52:28;19.15;;;6.57;;
23376;SDS011;14353;46.070;13.222;2023-03-20T10:54:59;22.20;;;6.85;;
23376;SDS011;14353;46.070;13.222;2023-03-20T10:57:30;17.00;;;6.35;;
23376;SDS011;14353;46.070;13.222;2023-03-20T11:00:00;18.92;;;6.78;;
23376;SDS011;14353;46.070;13.222;2023-03-20T11:02:29;19.30;;;6.97;;
23376;SDS011;14353;46.070;13.222;2023-03-20T11:04:58;16.73;;;7.20;;
23376;SDS011;14353;46.070;13.222;2023-03-20T11:07:32;18.15;;;6.75;;
23376;SDS011;14353;46.070;13.222;2023-03-20T11:12:36;16.27;;;6.70;;
23376;SDS011;14353;46.070;13.222;2023-03-20T11:15:04;20.15;;;7.18;;
23376;SDS011;14353;46.070;13.222;2023-03-20T11:17:54;18.63;;;7.18;;
23376;SDS011;14353;46.070;13.222;2023-03-20T11:20:22;21.13;;;7.53;;
23376;SDS011;14353;46.070;13.222;2023-03-20T11:22:49;16.58;;;7.35;;
23376;SDS011;14353;46.070;13.222;2023-03-20T11:25:24;18.98;;;7.00;;
23376;SDS011;14353;46.070;13.222;2023-03-20T11:28:17;17.80;;;7.07;;
23376;SDS011;14353;46.070;13.222;2023-03-20T11:30:50;18.55;;;7.03;;
23376;SDS011;14353;46.070;13.222;2023-03-20T11:33:25;17.75;;;7.45;;
23376;SDS011;14353;46.070;13.222;2023-03-20T11:35:53;19.42;;;7.97;;
23376;SDS011;14353;46.070;13.222;2023-03-20T11:38:21;12.57;;;6.93;;
23376;SDS011;14353;46.070;13.222;2023-03-20T11:40:47;19.20;;;7.25;;
23376;SDS011;14353;46.070;13.222;2023-03-20T11:43:20;15.57;;;7.13;;
23376;SDS011;14353;46.070;13.222;2023-03-20T11:45:55;11.88;;;6.80;;
23376;SDS011;14353;46.070;13.222;2023-03-20T11:48:24;9.70;;;6.43;;
23376;SDS011;14353;46.070;13.222;2023-03-20T11:51:33;11.68;;;6.55;;
23376;SDS011;14353;46.070;13.222;2023-03-20T11:56:25;13.05;;;6.85;;
23376;SDS011;14353;46.070;13.222;2023-03-20T12:01:21;12.48;;;6.28;;
23376;SDS011;14353;46.070;13.222;2023-03-20T12:03:52;16.80;;;6.05;;
23376;SDS011;14353;46.070;13.222;2023-03-20T12:06:27;12.40;;;6.13;;
23376;SDS011;14353;46.070;13.222;2023-03-20T12:09:11;13.77;;;6.43;;
23376;SDS011;14353;46.070;13.222;2023-03-20T12:19:51;15.38;;;7.05;;
23376;SDS011;14353;46.070;13.222;2023-03-20T12:22:21;15.77;;;7.65;;
23376;SDS011;14353;46.070;13.222;2023-03-20T12:25:00;17.77;;;7.30;;
23376;SDS011;14353;46.070;13.222;2023-03-20T12:27:52;15.63;;;6.93;;
23376;SDS011;14353;46.070;13.222;2023-03-20T12:30:28;12.07;;;6.68;;
23376;SDS011;14353;46.070;13.222;2023-03-20T12:36:02;11.98;;;6.68;;
23376;SDS011;14353;46.070;13.222;2023-03-20T12:38:31;14.50;;;6.72;;
23376;SDS011;14353;46.070;13.222;2023-03-20T12:41:02;13.00;;;6.50;;
23376;SDS011;14353;46.070;13.222;2023-03-20T12:43:43;16.05;;;7.10;;
23376;SDS011;14353;46.070;13.222;2023-03-20T12:46:32;12.27;;;7.38;;
23376;SDS011;14353;46.070;13.222;2023-03-20T12:58:02;19.10;;;6.90;;
23376;SDS011;14353;46.070;13.222;2023-03-20T13:00:34;12.82;;;6.50;;
23376;SDS011;14353;46.070;13.222;2023-03-20T13:19:46;10.95;;;6.25;;
23376;SDS011;14353;46.070;13.222;2023-03-20T13:22:29;9.60;;;6.10;;
23376;SDS011;14353;46.070;13.222;2023-03-20T13:25:05;8.45;;;5.25;;
23376;SDS011;14353;46.070;13.222;2023-03-20T13:30:34;8.50;;;6.00;;
23376;SDS011;14353;46.070;13.222;2023-03-20T13:33:19;9.75;;;5.85;;
23376;SDS011;14353;46.070;13.222;2023-03-20T13:39:36;10.52;;;6.05;;
23376;SDS011;14353;46.070;13.222;2023-03-20T13:42:10;10.63;;;5.30;;
23376;SDS011;14353;46.070;13.222;2023-03-20T13:44:40;7.85;;;5.40;;
23376;SDS011;14353;46.070;13.222;2023-03-20T13:47:11;9.20;;;5.80;;
23376;SDS011;14353;46.070;13.222;2023-03-20T13:49:52;9.15;;;6.05;;
23376;SDS011;14353;46.070;13.222;2023-03-20T13:52:22;11.55;;;5.72;;
23376;SDS011;14353;46.070;13.222;2023-03-20T13:54:58;9.07;;;5.40;;
23376;SDS011;14353;46.070;13.222;2023-03-20T14:00:33;8.65;;;5.22;;
23376;SDS011;14353;46.070;13.222;2023-03-20T14:05:44;10.88;;;5.32;;
23376;SDS011;14353;46.070;13.222;2023-03-20T14:08:21;7.50;;;5.10;;
23376;SDS011;14353;46.070;13.222;2023-03-20T14:13:38;9.50;;;5.10;;
23376;SDS011;14353;46.070;13.222;2023-03-20T14:16:09;7.65;;;5.20;;
23376;SDS011;14353;46.070;13.222;2023-03-20T14:18:38;8.10;;;5.20;;
23376;SDS011;14353;46.070;13.222;2023-03-20T14:21:11;7.07;;;5.03;;
23376;SDS011;14353;46.070;13.222;2023-03-20T14:31:34;6.97;;;4.93;;
23376;SDS011;14353;46.070;13.222;2023-03-20T14:39:26;7.18;;;5.10;;
23376;SDS011;14353;46.070;13.222;2023-03-20T14:47:54;6.35;;;4.35;;
23376;SDS011;14353;46.070;13.222;2023-03-20T14:50:50;5.63;;;4.30;;
23376;SDS011;14353;46.070;13.222;2023-03-20T14:53:38;6.78;;;4.45;;
23376;SDS011;14353;46.070;13.222;2023-03-20T14:56:06;6.57;;;4.22;;
23376;SDS011;14353;46.070;13.222;2023-03-20T15:06:55;5.65;;;4.45;;
23376;SDS011;14353;46.070;13.222;2023-03-20T15:09:27;7.57;;;4.70;;
23376;SDS011;14353;46.070;13.222;2023-03-20T15:11:56;7.32;;;4.13;;
23376;SDS011;14353;46.070;13.222;2023-03-20T15:14:30;7.30;;;4.50;;
23376;SDS011;14353;46.070;13.222;2023-03-20T15:18:01;6.80;;;4.28;;
23376;SDS011;14353;46.070;13.222;2023-03-20T15:20:26;6.32;;;4.63;;
23376;SDS011;14353;46.070;13.222;2023-03-20T15:22:57;6.88;;;4.28;;
23376;SDS011;14353;46.070;13.222;2023-03-20T15:25:37;5.00;;;4.20;;
23376;SDS011;14353;46.070;13.222;2023-03-20T15:28:07;6.75;;;4.55;;
23376;SDS011;14353;46.070;13.222;2023-03-20T15:30:56;6.13;;;4.18;;
23376;SDS011;14353;46.070;13.222;2023-03-20T15:35:58;5.47;;;3.97;;
23376;SDS011;14353;46.070;13.222;2023-03-20T15:38:35;6.05;;;4.15;;
23376;SDS011;14353;46.070;13.222;2023-03-20T15:41:05;7.35;;;4.20;;
23376;SDS011;14353;46.070;13.222;2023-03-20T15:43:32;6.90;;;4.22;;
23376;SDS011;14353;46.070;13.222;2023-03-20T15:45:59;7.07;;;4.75;;
23376;SDS011;14353;46.070;13.222;2023-03-20T15:48:27;5.45;;;4.35;;
23376;SDS011;14353;46.070;13.222;2023-03-20T15:50:55;6.80;;;4.18;;
23376;SDS011;14353;46.070;13.222;2023-03-20T15:53:29;6.03;;;3.88;;
23376;SDS011;14353;46.070;13.222;2023-03-20T17:25:43;4.95;;;4.22;;
23376;SDS011;14353;46.070;13.222;2023-03-20T17:28:31;4.97;;;4.10;;
23376;SDS011;14353;46.070;13.222;2023-03-20T17:30:59;6.57;;;4.05;;
23376;SDS011;14353;46.070;13.222;2023-03-20T17:33:29;4.53;;;4.13;;
23376;SDS011;14353;46.070;13.222;2023-03-20T17:35:56;4.78;;;4.25;;
23376;SDS011;14353;46.070;13.222;2023-03-20T17:38:25;6.30;;;4.13;;
23376;SDS011;14353;46.070;13.222;2023-03-20T17:40:51;4.43;;;3.90;;
23376;SDS011;14353;46.070;13.222;2023-03-20T17:43:17;5.40;;;4.30;;
23376;SDS011;14353;46.070;13.222;2023-03-20T17:45:44;4.72;;;4.13;;
23376;SDS011;14353;46.070;13.222;2023-03-20T17:48:18;5.03;;;3.83;;
23376;SDS011;14353;46.070;13.222;2023-03-20T17:53:22;4.60;;;4.07;;
23376;SDS011;14353;46.070;13.222;2023-03-20T17:55:50;4.68;;;3.83;;
23376;SDS011;14353;46.070;13.222;2023-03-20T17:58:17;4.45;;;3.70;;
23376;SDS011;14353;46.070;13.222;2023-03-20T18:00:46;5.35;;;3.90;;
23376;SDS011;14353;46.070;13.222;2023-03-20T18:03:16;5.13;;;3.92;;
23376;SDS011;14353;46.070;13.222;2023-03-20T18:05:43;5.22;;;4.10;;
23376;SDS011;14353;46.070;13.222;2023-03-20T18:08:17;4.82;;;4.22;;
23376;SDS011;14353;46.070;13.222;2023-03-20T18:10:45;4.68;;;4.00;;
23376;SDS011;14353;46.070;13.222;2023-03-20T18:13:16;4.97;;;4.20;;
23376;SDS011;14353;46.070;13.222;2023-03-20T18:15:45;5.18;;;4.00;;
23376;SDS011;14353;46.070;13.222;2023-03-20T18:18:12;5.53;;;4.05;;
23376;SDS011;14353;46.070;13.222;2023-03-20T18:20:38;4.40;;;4.00;;
23376;SDS011;14353;46.070;13.222;2023-03-20T18:23:08;5.45;;;4.20;;
23376;SDS011;14353;46.070;13.222;2023-03-20T18:25:34;5.50;;;4.60;;
23376;SDS011;14353;46.070;13.222;2023-03-20T18:28:00;6.03;;;4.38;;
23376;SDS011;14353;46.070;13.222;2023-03-20T18:30:34;6.82;;;4.60;;
23376;SDS011;14353;46.070;13.222;2023-03-20T18:33:01;6.03;;;4.80;;
23376;SDS011;14353;46.070;13.222;2023-03-20T18:35:28;5.97;;;4.93;;
23376;SDS011;14353;46.070;13.222;2023-03-20T18:37:55;6.20;;;5.55;;
23376;SDS011;14353;46.070;13.222;2023-03-20T18:40:28;6.80;;;5.47;;
23376;SDS011;14353;46.070;13.222;2023-03-20T18:42:56;8.55;;;6.50;;
23376;SDS011;14353;46.070;13.222;2023-03-20T18:45:22;8.15;;;6.72;;
23376;SDS011;14353;46.070;13.222;2023-03-20T18:47:49;9.82;;;6.55;;
23376;SDS011;14353;46.070;13.222;2023-03-20T18:50:19;10.30;;;6.07;;
23376;SDS011;14353;46.070;13.222;2023-03-20T18:52:47;7.03;;;5.97;;
23376;SDS011;14353;46.070;13.222;2023-03-20T18:55:13;8.90;;;6.32;;
23376;SDS011;14353;46.070;13.222;2023-03-20T18:57:38;7.63;;;5.63;;
23376;SDS011;14353;46.070;13.222;2023-03-20T19:00:15;7.22;;;5.95;;
23376;SDS011;14353;46.070;13.222;2023-03-20T19:02:42;9.25;;;6.32;;
23376;SDS011;14353;46.070;13.222;2023-03-20T19:05:08;7.70;;;6.05;;
23376;SDS011;14353;46.070;13.222;2023-03-20T19:07:35;8.98;;;6.20;;
23376;SDS011;14353;46.070;13.222;2023-03-20T19:10:01;8.07;;;5.80;;